Terminal Aerodrome Forecast
Issued by NWS Boston, MA

Home | Current Version | Previous Version | Text Only | Print | Product List | Glossary On
Versions: 1 2 3 4 5 6 7 8 9 10 11 12 13 14 15 16 17 18 19 20 21 22 23 24 25 26 27 28 29
000
FTUS41 KBOX 281934 AAA
TAFORH
TAF AMD
KORH 281934Z 2820/2918 28006KT P6SM -TSRA BKN050CB
     FM282100 27005KT P6SM BKN050
     FM282300 27004KT P6SM BKN050
     FM290100 VRB03KT P6SM SCT050
     FM290200 VRB03KT P6SM SCT200=

USA.gov is the U.S. government's official web portal to all federal, state and local government web resources and services.